Terminal Aerodrome Forecast
Issued by NWS Raleigh/Durham, NC

Home | Current Version | Previous Version | Text Only | Print | Product List | Glossary On
Versions: 1 2 3 4 5 6 7 8 9 10 11 12 13 14
000
FTUS42 KRAH 211721
TAFFAY
TAF
KFAY 211721Z 2118/2218 12005KT P6SM FEW250
     FM220100 00000KT P6SM BKN250
     FM220800 00000KT 3SM BR SCT250
      TEMPO 2209/2212 1 1/2SM BR
     FM221300 VRB04KT P6SM FEW250
     FM221500 12005KT P6SM FEW040=

USA.gov is the U.S. government's official web portal to all federal, state and local government web resources and services.